Terminal Aerodrome Forecast
Issued by NWS

Home | Current Version | Previous Version | Text Only | Print | Product List | Glossary On
Versions: 1 2 3 4 5 6 7 8 9 10 11 12 13 14 15
000
FTUS43 KEAX 012300
TAFMKC
TAF
KMKC 012329Z 0200/0224 15007KT P6SM VCTS SCT025CB BKN050
     FM020100 15006KT P6SM SCT025 OVC040
      TEMPO 0202/0206 2SM -TSRA BR SCT015CB BKN025
     FM020700 15006KT 5SM BR SCT015 BKN025
     FM021400 18010KT P6SM VCTS SCT025CB OVC035CB
      TEMPO 0218/0222 2SM TSRA SCT020CB OVC035=

USA.gov is the U.S. government's official web portal to all federal, state and local government web resources and services.